Time;durP1;ratioP1;P1;durP2;ratioP2;P2;SDS_P1;SDS_P2;PMS_P1;PMS_P2;Temp;Humidity;BMP_temperature;BMP_pressure;BME280_temperature;BME280_humidity;BME280_pressure;Samples;Min_cycle;Max_cycle;Signal;HPM_P1;HPM_P2
2022/03/01 00:01:24;;;;;;;;;;;21.40;26.80;;;;;;5056985;28;19909;-55
2022/03/01 00:03:50;;;;;;;;;;;21.40;26.80;;;;;;5064422;28;19908;-53
2022/03/01 00:06:15;;;;;;;;;;;21.30;26.80;;;;;;5058628;28;19919;-52
2022/03/01 00:08:41;;;;;;;;;;;21.30;26.80;;;;;;5076367;28;20291;-47
2022/03/01 00:11:07;;;;;;;;;;;21.40;26.80;;;;;;5075095;28;19905;-46
2022/03/01 00:13:33;;;;;;;;;;;21.40;26.90;;;;;;5061424;28;20213;-46
2022/03/01 00:15:58;;;;;;;;;;;21.40;26.80;;;;;;5076465;28;19908;-51
2022/03/01 00:18:24;;;;;;;;;;;21.30;26.80;;;;;;5068083;28;19919;-52
2022/03/01 00:20:50;;;;;;;;;;;21.30;26.80;;;;;;5076112;28;19951;-46
2022/03/01 00:23:15;;;;;;;;;;;21.30;26.80;;;;;;5069301;28;19908;-46
2022/03/01 00:25:41;;;;;;;;;;;21.30;26.80;;;;;;5076224;28;19916;-50
2022/03/01 00:28:06;;;;;;;;;;;21.30;26.80;;;;;;5075049;28;20208;-48
2022/03/01 00:30:32;;;;;;;;;;;21.30;26.80;;;;;;5075537;28;20358;-48
2022/03/01 00:32:58;;;;;;;;;;;21.30;26.80;;;;;;5073986;28;19923;-46
2022/03/01 00:35:23;;;;;;;;;;;21.30;26.80;;;;;;5076360;28;19923;-47
2022/03/01 00:37:49;;;;;;;;;;;21.30;26.80;;;;;;5075044;28;19919;-47
2022/03/01 00:40:15;;;;;;;;;;;21.30;26.80;;;;;;5075693;28;19912;-48
2022/03/01 00:42:40;;;;;;;;;;;21.30;26.80;;;;;;5064564;28;19962;-44
2022/03/01 00:45:06;;;;;;;;;;;21.30;26.80;;;;;;5076082;28;20011;-47
2022/03/01 00:47:32;;;;;;;;;;;21.30;26.80;;;;;;5074729;28;19922;-48
2022/03/01 00:49:58;;;;;;;;;;;21.30;26.80;;;;;;5075638;28;19919;-46
2022/03/01 00:52:23;;;;;;;;;;;21.30;26.80;;;;;;5061054;28;20271;-45
2022/03/01 00:54:49;;;;;;;;;;;21.30;26.80;;;;;;5075724;28;20312;-47
2022/03/01 00:57:15;;;;;;;;;;;21.30;26.80;;;;;;5060698;28;20296;-48
2022/03/01 00:59:40;;;;;;;;;;;21.30;26.80;;;;;;5075879;28;19913;-48
2022/03/01 01:02:06;;;;;;;;;;;21.20;26.80;;;;;;5059292;28;19920;-45
2022/03/01 01:04:32;;;;;;;;;;;21.20;26.80;;;;;;5075891;28;20369;-48
2022/03/01 01:06:57;;;;;;;;;;;21.20;26.80;;;;;;5058852;28;20000;-49
2022/03/01 01:09:23;;;;;;;;;;;21.20;26.80;;;;;;5075968;28;19962;-45
2022/03/01 01:11:49;;;;;;;;;;;21.20;26.80;;;;;;5075167;28;19919;-47
2022/03/01 01:14:14;;;;;;;;;;;21.20;26.80;;;;;;5075422;28;20078;-48
2022/03/01 01:16:40;;;;;;;;;;;21.20;26.80;;;;;;5058916;28;19951;-46
2022/03/01 01:19:06;;;;;;;;;;;21.20;26.80;;;;;;5074992;28;19924;-50
2022/03/01 01:24:16;;;;;;;;;;;21.20;26.80;;;;;;5055755;28;19919;-51
2022/03/01 01:26:42;;;;;;;;;;;21.20;26.80;;;;;;5056464;28;19908;-49
2022/03/01 01:29:08;;;;;;;;;;;21.20;26.90;;;;;;5075804;28;19920;-49
2022/03/01 01:31:33;;;;;;;;;;;21.20;26.90;;;;;;5073946;28;19912;-45
2022/03/01 01:33:59;;;;;;;;;;;21.20;26.90;;;;;;5074612;28;19908;-49
2022/03/01 01:36:26;;;;;;;;;;;21.20;26.90;;;;;;5059603;28;20366;-45
2022/03/01 01:38:52;;;;;;;;;;;21.20;26.90;;;;;;5076029;28;19931;-51
2022/03/01 01:41:18;;;;;;;;;;;21.10;26.90;;;;;;5068020;28;20007;-44
2022/03/01 01:43:43;;;;;;;;;;;21.10;26.80;;;;;;5078780;28;20030;-48
2022/03/01 01:46:09;;;;;;;;;;;21.10;26.80;;;;;;5077712;28;19909;-49
2022/03/01 01:48:35;;;;;;;;;;;21.10;26.90;;;;;;5078471;28;19919;-47
2022/03/01 01:51:00;;;;;;;;;;;21.10;26.90;;;;;;5076659;28;19916;-45
2022/03/01 01:53:26;;;;;;;;;;;21.10;26.90;;;;;;5073633;28;20240;-44
2022/03/01 01:55:52;;;;;;;;;;;21.10;26.90;;;;;;5074446;28;20248;-47
2022/03/01 01:58:18;;;;;;;;;;;21.10;26.90;;;;;;5079385;28;19920;-46
2022/03/01 02:00:44;;;;;;;;;;;21.10;26.90;;;;;;5077138;28;19920;-44
2022/03/01 02:03:09;;;;;;;;;;;21.10;26.90;;;;;;5078386;28;19908;-48
2022/03/01 02:05:35;;;;;;;;;;;21.10;26.90;;;;;;5077743;28;19930;-50
2022/03/01 02:08:01;;;;;;;;;;;21.10;26.90;;;;;;5075837;28;19963;-48
2022/03/01 02:10:27;;;;;;;;;;;21.10;26.90;;;;;;5078229;28;19912;-47
2022/03/01 02:12:53;;;;;;;;;;;21.10;26.90;;;;;;5059076;28;19955;-43
2022/03/01 02:15:19;;;;;;;;;;;21.10;26.90;;;;;;5069732;28;19967;-49
2022/03/01 02:17:44;;;;;;;;;;;21.00;26.90;;;;;;5059580;28;19959;-48
2022/03/01 02:20:13;;;;;;;;;;;21.00;26.90;;;;;;5067676;28;20389;-47
2022/03/01 02:22:38;;;;;;;;;;;21.00;26.90;;;;;;5078601;28;20015;-49
2022/03/01 02:25:04;;;;;;;;;;;21.00;26.80;;;;;;5070652;28;20406;-45
2022/03/01 02:27:30;;;;;;;;;;;21.00;26.80;;;;;;5075352;28;19912;-46
2022/03/01 02:29:56;;;;;;;;;;;21.00;26.90;;;;;;5065608;28;20238;-51
2022/03/01 02:32:21;;;;;;;;;;;21.00;26.90;;;;;;5066421;28;19979;-47
2022/03/01 02:34:48;;;;;;;;;;;21.00;26.90;;;;;;5060530;28;19932;-48
2022/03/01 02:37:14;;;;;;;;;;;21.00;26.90;;;;;;5058679;28;19974;-54
2022/03/01 02:39:39;;;;;;;;;;;21.00;26.90;;;;;;5063791;28;20336;-53
2022/03/01 02:42:05;;;;;;;;;;;21.00;26.90;;;;;;5074029;28;19936;-50
2022/03/01 02:44:31;;;;;;;;;;;21.00;26.90;;;;;;5070745;28;19908;-51
2022/03/01 02:46:56;;;;;;;;;;;21.00;26.90;;;;;;5073061;28;19983;-47
2022/03/01 02:49:22;;;;;;;;;;;21.00;26.90;;;;;;5076398;28;19908;-52
2022/03/01 02:51:47;;;;;;;;;;;21.00;26.90;;;;;;5077224;28;19931;-47
2022/03/01 02:54:13;;;;;;;;;;;21.00;26.90;;;;;;5072704;28;19913;-53
2022/03/01 02:56:39;;;;;;;;;;;21.00;26.90;;;;;;5076938;28;19927;-50
2022/03/01 02:59:05;;;;;;;;;;;21.00;26.90;;;;;;5077644;28;19917;-46
2022/03/01 03:01:31;;;;;;;;;;;21.00;26.90;;;;;;5063295;28;19908;-49
2022/03/01 03:03:57;;;;;;;;;;;21.00;26.90;;;;;;5072761;28;19908;-49
2022/03/01 03:06:23;;;;;;;;;;;20.90;26.80;;;;;;5071765;28;20221;-45
2022/03/01 03:08:48;;;;;;;;;;;21.00;26.90;;;;;;5077266;28;20007;-46
2022/03/01 03:11:14;;;;;;;;;;;20.90;26.80;;;;;;5072624;28;19912;-47
2022/03/01 03:13:40;;;;;;;;;;;20.90;26.80;;;;;;5077898;28;19912;-45
2022/03/01 03:16:07;;;;;;;;;;;20.90;26.80;;;;;;5067532;28;19920;-48
2022/03/01 03:18:33;;;;;;;;;;;20.90;26.80;;;;;;5057361;28;20239;-42
2022/03/01 03:20:59;;;;;;;;;;;20.90;26.80;;;;;;5069498;28;20010;-47
2022/03/01 03:23:25;;;;;;;;;;;20.90;26.80;;;;;;5077901;28;20066;-46
2022/03/01 03:25:50;;;;;;;;;;;20.90;26.80;;;;;;5067773;28;20069;-46
2022/03/01 03:28:16;;;;;;;;;;;20.90;26.80;;;;;;5078249;28;20011;-47
2022/03/01 03:30:42;;;;;;;;;;;20.90;26.80;;;;;;5075181;28;20264;-48
2022/03/01 03:33:07;;;;;;;;;;;20.90;26.80;;;;;;5077079;28;19916;-46
2022/03/01 03:35:33;;;;;;;;;;;20.90;26.80;;;;;;5076658;28;19920;-46
2022/03/01 03:37:59;;;;;;;;;;;20.90;26.80;;;;;;5076363;28;19987;-46
2022/03/01 03:40:24;;;;;;;;;;;20.90;26.90;;;;;;5075321;28;19956;-46
2022/03/01 03:42:50;;;;;;;;;;;20.90;26.90;;;;;;5076080;28;21042;-50
2022/03/01 03:45:16;;;;;;;;;;;20.80;26.80;;;;;;5076489;28;20208;-50
2022/03/01 03:47:42;;;;;;;;;;;20.80;26.80;;;;;;5077149;28;19969;-45
2022/03/01 03:50:09;;;;;;;;;;;20.80;26.80;;;;;;5075577;28;19909;-46
2022/03/01 03:52:38;;;;;;;;;;;20.80;26.80;;;;;;5077290;28;19962;-45
2022/03/01 03:55:05;;;;;;;;;;;20.80;26.80;;;;;;5067093;28;19952;-52
2022/03/01 03:57:32;;;;;;;;;;;20.80;26.90;;;;;;5076594;28;20213;-49
2022/03/01 03:59:58;;;;;;;;;;;20.80;26.80;;;;;;5075808;28;19928;-49
2022/03/01 04:02:24;;;;;;;;;;;20.80;26.80;;;;;;5055836;28;19913;-45
2022/03/01 04:04:49;;;;;;;;;;;20.80;26.80;;;;;;5063668;28;19908;-46
2022/03/01 04:07:15;;;;;;;;;;;20.80;26.80;;;;;;5076612;28;20307;-48
2022/03/01 04:09:41;;;;;;;;;;;20.80;26.90;;;;;;5075225;28;20220;-46
2022/03/01 04:12:06;;;;;;;;;;;20.80;26.90;;;;;;5076960;28;19908;-46
2022/03/01 04:14:33;;;;;;;;;;;20.80;26.90;;;;;;5066257;28;19908;-50
2022/03/01 04:16:58;;;;;;;;;;;20.80;26.90;;;;;;5075468;28;19979;-46
2022/03/01 04:19:24;;;;;;;;;;;20.80;26.90;;;;;;5074916;28;19916;-50
2022/03/01 04:21:50;;;;;;;;;;;20.80;26.90;;;;;;5076128;28;20015;-47
2022/03/01 04:24:15;;;;;;;;;;;20.70;26.80;;;;;;5065624;28;20267;-48
2022/03/01 04:26:41;;;;;;;;;;;20.80;26.90;;;;;;5076556;28;19916;-48
2022/03/01 04:29:06;;;;;;;;;;;20.80;26.90;;;;;;5074694;28;20003;-48
2022/03/01 04:31:32;;;;;;;;;;;20.80;26.90;;;;;;5075932;28;20307;-45
2022/03/01 04:33:58;;;;;;;;;;;20.80;26.90;;;;;;5074742;28;19908;-45
2022/03/01 04:36:23;;;;;;;;;;;20.70;26.90;;;;;;5074546;28;19982;-47
2022/03/01 04:38:49;;;;;;;;;;;20.80;26.90;;;;;;5074805;28;20220;-50
2022/03/01 04:41:15;;;;;;;;;;;20.70;26.90;;;;;;5076039;28;20219;-49
2022/03/01 04:43:40;;;;;;;;;;;20.70;26.90;;;;;;5068600;28;19920;-44
2022/03/01 04:46:06;;;;;;;;;;;20.70;26.90;;;;;;5072513;28;19978;-49
2022/03/01 04:48:32;;;;;;;;;;;20.70;26.90;;;;;;5074571;28;19919;-44
2022/03/01 04:50:58;;;;;;;;;;;20.70;26.90;;;;;;5075866;28;19952;-47
2022/03/01 04:53:23;;;;;;;;;;;20.70;26.90;;;;;;5070420;28;19942;-46
2022/03/01 04:55:49;;;;;;;;;;;20.70;26.90;;;;;;5056015;28;19980;-48
2022/03/01 04:58:15;;;;;;;;;;;20.70;26.90;;;;;;5064432;28;20223;-48
2022/03/01 05:00:40;;;;;;;;;;;20.70;26.90;;;;;;5075598;28;19917;-48
2022/03/01 05:03:06;;;;;;;;;;;20.70;26.90;;;;;;5072914;28;19923;-48
2022/03/01 05:05:32;;;;;;;;;;;20.70;26.90;;;;;;5066641;28;19908;-53
2022/03/01 05:07:58;;;;;;;;;;;20.70;26.90;;;;;;5073996;28;19916;-44
2022/03/01 05:10:24;;;;;;;;;;;20.70;26.90;;;;;;5075420;28;19927;-49
2022/03/01 05:12:52;;;;;;;;;;;20.70;26.90;;;;;;5074353;28;19973;-52
2022/03/01 05:15:18;;;;;;;;;;;20.70;26.90;;;;;;5075394;28;20197;-54
2022/03/01 05:17:44;;;;;;;;;;;20.70;26.90;;;;;;5074574;28;20075;-53
2022/03/01 05:20:10;;;;;;;;;;;20.70;26.90;;;;;;5074453;28;20015;-49
2022/03/01 05:22:36;;;;;;;;;;;20.70;26.90;;;;;;5074707;28;19991;-49
2022/03/01 05:25:03;;;;;;;;;;;20.70;27.00;;;;;;5075472;28;19970;-50
2022/03/01 05:27:29;;;;;;;;;;;20.70;26.90;;;;;;5074336;28;19957;-46
2022/03/01 05:29:54;;;;;;;;;;;20.70;27.00;;;;;;5075309;28;20241;-50
2022/03/01 05:32:20;;;;;;;;;;;20.60;26.90;;;;;;5074055;28;19909;-49
2022/03/01 05:34:46;;;;;;;;;;;20.70;27.00;;;;;;5075273;28;19948;-49
2022/03/01 05:37:12;;;;;;;;;;;20.70;26.90;;;;;;5074859;28;19961;-46
2022/03/01 05:39:37;;;;;;;;;;;20.70;27.00;;;;;;5075488;28;20385;-47
2022/03/01 05:42:03;;;;;;;;;;;20.60;26.90;;;;;;5074276;28;19913;-45
2022/03/01 05:44:29;;;;;;;;;;;20.70;27.00;;;;;;5075276;28;19908;-44
2022/03/01 05:46:54;;;;;;;;;;;20.60;26.90;;;;;;5073837;28;19916;-47
2022/03/01 05:49:20;;;;;;;;;;;20.60;26.90;;;;;;5075106;28;19908;-46
2022/03/01 05:51:45;;;;;;;;;;;20.60;26.90;;;;;;5074081;28;20280;-44
2022/03/01 05:54:11;;;;;;;;;;;20.60;26.90;;;;;;5075112;28;19970;-46
2022/03/01 05:56:37;;;;;;;;;;;20.60;26.90;;;;;;5061907;28;19970;-48
2022/03/01 05:59:02;;;;;;;;;;;20.60;27.00;;;;;;5066185;28;19942;-46
2022/03/01 06:01:28;;;;;;;;;;;20.60;27.00;;;;;;5074030;28;19952;-49
2022/03/01 06:03:54;;;;;;;;;;;20.60;27.00;;;;;;5073089;28;19909;-47
2022/03/01 06:06:20;;;;;;;;;;;20.60;27.00;;;;;;5074957;28;19965;-46
2022/03/01 06:08:46;;;;;;;;;;;20.60;27.00;;;;;;5069329;28;20343;-48
2022/03/01 06:11:11;;;;;;;;;;;20.60;27.00;;;;;;5075151;28;19970;-48
2022/03/01 06:13:40;;;;;;;;;;;20.60;27.00;;;;;;5067576;28;19967;-47
2022/03/01 06:16:05;;;;;;;;;;;20.60;27.00;;;;;;5067998;28;19916;-43
2022/03/01 06:18:31;;;;;;;;;;;20.60;27.00;;;;;;5073582;28;20236;-47
2022/03/01 06:20:58;;;;;;;;;;;20.50;27.00;;;;;;5074978;28;19976;-47
2022/03/01 06:23:24;;;;;;;;;;;20.60;27.10;;;;;;5073840;28;19912;-47
2022/03/01 06:25:50;;;;;;;;;;;20.60;27.10;;;;;;5077579;28;20350;-49
2022/03/01 06:28:16;;;;;;;;;;;20.60;27.10;;;;;;5077543;28;19943;-55
2022/03/01 06:30:41;;;;;;;;;;;20.60;27.10;;;;;;5078119;28;20225;-54
2022/03/01 06:33:07;;;;;;;;;;;20.50;27.10;;;;;;5077871;28;20333;-45
2022/03/01 06:35:33;;;;;;;;;;;20.50;27.10;;;;;;5075412;28;20333;-49
2022/03/01 06:37:58;;;;;;;;;;;20.50;27.10;;;;;;5058597;28;19909;-49
2022/03/01 06:40:24;;;;;;;;;;;20.60;27.10;;;;;;5077490;28;19924;-47
2022/03/01 06:42:50;;;;;;;;;;;20.60;27.10;;;;;;5077415;28;20324;-45
2022/03/01 06:45:16;;;;;;;;;;;20.60;27.10;;;;;;5076963;28;19908;-48
2022/03/01 06:47:41;;;;;;;;;;;20.60;27.20;;;;;;5063983;28;19912;-47
2022/03/01 06:50:08;;;;;;;;;;;20.50;27.10;;;;;;5077194;28;20441;-51
2022/03/01 06:52:35;;;;;;;;;;;20.50;27.10;;;;;;5075300;28;19912;-48
2022/03/01 06:55:04;;;;;;;;;;;20.50;27.10;;;;;;5077886;28;19919;-47
2022/03/01 06:57:30;;;;;;;;;;;20.50;27.10;;;;;;5075727;28;19926;-52
2022/03/01 06:59:56;;;;;;;;;;;20.50;27.10;;;;;;5077717;28;20344;-49
2022/03/01 07:02:22;;;;;;;;;;;20.50;27.10;;;;;;5060580;28;19909;-48
2022/03/01 07:04:48;;;;;;;;;;;20.50;27.20;;;;;;5068766;28;19908;-47
2022/03/01 07:07:14;;;;;;;;;;;20.50;27.20;;;;;;5056589;28;20352;-51
2022/03/01 07:09:39;;;;;;;;;;;20.50;27.20;;;;;;5067074;28;19999;-50
2022/03/01 07:12:05;;;;;;;;;;;20.50;27.20;;;;;;5073139;28;19909;-43
2022/03/01 07:14:31;;;;;;;;;;;20.50;27.20;;;;;;5069973;28;19909;-47
2022/03/01 07:16:56;;;;;;;;;;;20.50;27.20;;;;;;5075642;28;19919;-48
2022/03/01 07:19:22;;;;;;;;;;;20.50;27.20;;;;;;5069195;28;19928;-49
2022/03/01 07:21:48;;;;;;;;;;;20.50;27.20;;;;;;5057723;28;19991;-46
2022/03/01 07:24:13;;;;;;;;;;;20.50;27.20;;;;;;5064763;28;20328;-50
2022/03/01 07:26:39;;;;;;;;;;;20.50;27.20;;;;;;5077343;28;19916;-47
2022/03/01 07:29:05;;;;;;;;;;;20.50;27.20;;;;;;5072313;28;19904;-47
2022/03/01 07:31:31;;;;;;;;;;;20.50;27.20;;;;;;5069670;28;19966;-50
2022/03/01 07:33:56;;;;;;;;;;;20.50;27.20;;;;;;5074006;28;19908;-51
2022/03/01 07:36:22;;;;;;;;;;;20.60;27.20;;;;;;5076113;28;20321;-47
2022/03/01 07:38:47;;;;;;;;;;;20.60;27.20;;;;;;5073343;28;19974;-48
2022/03/01 07:41:13;;;;;;;;;;;20.70;27.20;;;;;;5075448;28;19938;-47
2022/03/01 07:43:39;;;;;;;;;;;20.70;27.10;;;;;;5076519;28;19950;-47
2022/03/01 07:46:07;;;;;;;;;;;20.80;27.10;;;;;;5075849;28;19908;-49
2022/03/01 07:48:32;;;;;;;;;;;20.90;27.00;;;;;;5072473;28;20015;-44
2022/03/01 07:50:58;;;;;;;;;;;20.90;27.00;;;;;;5075005;28;20007;-46
2022/03/01 07:53:24;;;;;;;;;;;21.00;26.90;;;;;;5076771;28;19985;-49
2022/03/01 07:55:49;;;;;;;;;;;21.10;27.40;;;;;;5074989;28;19908;-45
2022/03/01 07:58:15;;;;;;;;;;;21.20;26.90;;;;;;5072463;28;19920;-43
2022/03/01 08:00:41;;;;;;;;;;;21.40;26.90;;;;;;5074941;28;20009;-48
2022/03/01 08:03:06;;;;;;;;;;;21.40;26.80;;;;;;5064484;28;19909;-50
2022/03/01 08:05:32;;;;;;;;;;;21.50;26.80;;;;;;5075950;28;19908;-44
2022/03/01 08:07:58;;;;;;;;;;;21.60;26.80;;;;;;5076240;28;19916;-47
2022/03/01 08:10:24;;;;;;;;;;;21.60;26.70;;;;;;5076006;28;19924;-46
2022/03/01 08:12:50;;;;;;;;;;;21.70;26.70;;;;;;5075684;28;19909;-50
2022/03/01 08:15:15;;;;;;;;;;;21.80;26.60;;;;;;5076025;28;19909;-45
2022/03/01 08:17:48;;;;;;;;;;;21.90;26.60;;;;;;5070662;28;19963;-48
2022/03/01 08:20:14;;;;;;;;;;;21.90;26.50;;;;;;5069855;28;20238;-46
2022/03/01 08:22:40;;;;;;;;;;;22.00;26.50;;;;;;5065935;28;20000;-46
2022/03/01 08:25:06;;;;;;;;;;;22.10;26.60;;;;;;5075149;28;20003;-49
2022/03/01 08:27:31;;;;;;;;;;;22.10;26.60;;;;;;5075026;28;20003;-46
2022/03/01 08:29:57;;;;;;;;;;;22.20;26.60;;;;;;5075557;28;20016;-46
2022/03/01 08:32:23;;;;;;;;;;;22.30;26.60;;;;;;5067428;28;19913;-48
2022/03/01 08:34:48;;;;;;;;;;;22.30;26.70;;;;;;5066489;28;19970;-49
2022/03/01 08:37:14;;;;;;;;;;;22.40;26.70;;;;;;5065988;28;19990;-47
2022/03/01 08:39:40;;;;;;;;;;;22.40;26.70;;;;;;5075692;28;19917;-47
2022/03/01 08:42:05;;;;;;;;;;;22.40;26.60;;;;;;5059119;28;19977;-49
2022/03/01 08:44:31;;;;;;;;;;;22.50;26.60;;;;;;5070347;28;19969;-50
2022/03/01 08:46:57;;;;;;;;;;;22.50;26.50;;;;;;5065501;28;19962;-48
2022/03/01 08:49:22;;;;;;;;;;;22.50;26.50;;;;;;5074928;28;19966;-48
2022/03/01 08:51:48;;;;;;;;;;;22.60;26.50;;;;;;5074982;28;20213;-51
2022/03/01 08:54:20;;;;;;;;;;;22.60;26.40;;;;;;5068264;28;19965;-51
2022/03/01 08:56:46;;;;;;;;;;;22.60;26.30;;;;;;5065290;28;20007;-49
2022/03/01 08:59:11;;;;;;;;;;;22.70;26.30;;;;;;5069694;28;20288;-50
2022/03/01 09:01:37;;;;;;;;;;;22.70;26.30;;;;;;5073944;28;19932;-48
2022/03/01 09:04:03;;;;;;;;;;;22.70;26.20;;;;;;5073833;28;19923;-52
2022/03/01 09:06:29;;;;;;;;;;;22.80;26.20;;;;;;5072629;28;19919;-57
2022/03/01 09:08:54;;;;;;;;;;;22.80;26.20;;;;;;5071579;28;19920;-47
2022/03/01 09:11:20;;;;;;;;;;;22.80;26.20;;;;;;5072376;28;19974;-48
2022/03/01 09:13:46;;;;;;;;;;;22.80;26.10;;;;;;5073799;28;19919;-49
2022/03/01 09:16:11;;;;;;;;;;;22.80;26.10;;;;;;5074163;28;19921;-49
2022/03/01 09:18:37;;;;;;;;;;;22.80;26.10;;;;;;5072486;28;19966;-49
2022/03/01 09:21:03;;;;;;;;;;;22.80;26.10;;;;;;5074966;28;19908;-49
2022/03/01 09:23:30;;;;;;;;;;;22.90;26.10;;;;;;5074676;28;19917;-50
2022/03/01 09:25:55;;;;;;;;;;;22.90;26.10;;;;;;5074880;28;19948;-50
2022/03/01 09:28:21;;;;;;;;;;;22.90;26.10;;;;;;5074638;28;20350;-49
2022/03/01 09:30:47;;;;;;;;;;;22.90;26.00;;;;;;5073452;28;19999;-49
2022/03/01 09:33:13;;;;;;;;;;;22.90;26.00;;;;;;5074988;28;19955;-52
2022/03/01 09:35:39;;;;;;;;;;;22.90;26.00;;;;;;5073845;28;19920;-47
2022/03/01 09:38:05;;;;;;;;;;;22.90;26.00;;;;;;5059008;28;19909;-50
2022/03/01 09:40:31;;;;;;;;;;;22.90;26.00;;;;;;5064676;28;20015;-51
2022/03/01 09:43:03;;;;;;;;;;;22.90;26.00;;;;;;5074810;28;19920;-48
2022/03/01 09:45:29;;;;;;;;;;;22.90;26.00;;;;;;5074509;28;20328;-47
2022/03/01 09:47:54;;;;;;;;;;;22.90;26.00;;;;;;5074974;28;19974;-48
2022/03/01 09:50:27;;;;;;;;;;;22.90;26.10;;;;;;5063529;28;20461;-49
2022/03/01 09:52:54;;;;;;;;;;;22.80;26.10;;;;;;5073832;28;19908;-45
2022/03/01 09:55:20;;;;;;;;;;;22.80;26.10;;;;;;5072419;28;19931;-52
2022/03/01 09:57:46;;;;;;;;;;;22.80;26.20;;;;;;5074153;28;19991;-51
2022/03/01 10:00:12;;;;;;;;;;;22.70;26.20;;;;;;5076684;28;19978;-46
2022/03/01 10:02:39;;;;;;;;;;;22.70;26.30;;;;;;5078841;28;20235;-52
2022/03/01 10:05:05;;;;;;;;;;;22.70;26.30;;;;;;5078706;28;19916;-44
2022/03/01 10:07:31;;;;;;;;;;;22.70;26.40;;;;;;5077319;28;19908;-52
2022/03/01 10:10:05;;;;;;;;;;;22.60;26.30;;;;;;5078761;28;19908;-51
2022/03/01 10:12:30;;;;;;;;;;;22.60;26.30;;;;;;5078828;28;19918;-46
2022/03/01 10:15:02;;;;;;;;;;;22.60;26.30;;;;;;5078538;28;19908;-47
2022/03/01 10:17:35;;;;;;;;;;;22.60;26.30;;;;;;5078597;28;19969;-47
2022/03/01 10:20:09;;;;;;;;;;;22.60;26.30;;;;;;5078268;28;19917;-50
2022/03/01 10:22:51;;;;;;;;;;;22.50;26.30;;;;;;5077461;28;20255;-50
2022/03/01 10:25:18;;;;;;;;;;;22.50;26.30;;;;;;5069980;28;19991;-46
2022/03/01 10:27:45;;;;;;;;;;;22.50;26.30;;;;;;5073815;28;20027;-50
2022/03/01 10:30:11;;;;;;;;;;;22.50;26.30;;;;;;5075134;28;19938;-50
2022/03/01 10:32:37;;;;;;;;;;;22.40;26.40;;;;;;5077836;28;19924;-48
2022/03/01 10:35:04;;;;;;;;;;;22.40;26.50;;;;;;5075127;28;19908;-52
2022/03/01 10:37:31;;;;;;;;;;;22.50;26.70;;;;;;5077920;28;19909;-50
2022/03/01 10:40:14;;;;;;;;;;;22.50;26.70;;;;;;5077517;28;19917;-54
2022/03/01 10:42:40;;;;;;;;;;;22.50;26.80;;;;;;5077775;28;19923;-48
2022/03/01 10:45:06;;;;;;;;;;;22.40;26.90;;;;;;5073744;28;19961;-50
2022/03/01 10:47:32;;;;;;;;;;;22.50;27.00;;;;;;5058837;28;19970;-47
2022/03/01 10:50:10;;;;;;;;;;;22.40;27.00;;;;;;5076110;28;20212;-48
2022/03/01 10:52:39;;;;;;;;;;;22.50;27.10;;;;;;5067968;28;20373;-48
2022/03/01 10:55:06;;;;;;;;;;;22.50;27.10;;;;;;5063091;28;20316;-44
2022/03/01 10:57:32;;;;;;;;;;;22.50;27.10;;;;;;5058218;28;19916;-47
2022/03/01 10:59:57;;;;;;;;;;;22.50;27.10;;;;;;5076012;28;19917;-47
2022/03/01 11:02:23;;;;;;;;;;;22.40;27.00;;;;;;5077462;28;19917;-47
2022/03/01 11:04:50;;;;;;;;;;;22.40;27.00;;;;;;5077490;28;19909;-44
2022/03/01 11:07:16;;;;;;;;;;;22.40;27.00;;;;;;5077758;28;19912;-47
2022/03/01 11:09:43;;;;;;;;;;;22.40;27.00;;;;;;5076548;28;19913;-45
2022/03/01 11:12:09;;;;;;;;;;;22.40;27.00;;;;;;5076479;28;19951;-45
2022/03/01 11:14:38;;;;;;;;;;;22.30;26.90;;;;;;5077478;28;19909;-46
2022/03/01 11:17:03;;;;;;;;;;;22.30;26.80;;;;;;5078058;28;20252;-45
2022/03/01 11:19:38;;;;;;;;;;;22.30;26.80;;;;;;5077592;28;19916;-47
2022/03/01 11:22:05;;;;;;;;;;;22.30;26.80;;;;;;5071348;28;19924;-45
2022/03/01 11:24:31;;;;;;;;;;;22.30;26.80;;;;;;5059722;28;20312;-46
2022/03/01 11:27:07;;;;;;;;;;;22.30;26.80;;;;;;5063035;28;20235;-47
2022/03/01 11:29:39;;;;;;;;;;;22.30;26.90;;;;;;5074577;28;20354;-48
2022/03/01 11:32:10;;;;;;;;;;;22.30;26.90;;;;;;5071884;28;19908;-49
2022/03/01 11:34:36;;;;;;;;;;;22.30;27.00;;;;;;5057175;28;19909;-52
2022/03/01 11:37:01;;;;;;;;;;;22.30;27.00;;;;;;5056935;28;19919;-44
2022/03/01 11:39:28;;;;;;;;;;;22.30;27.00;;;;;;5072597;28;19929;-50
2022/03/01 11:42:02;;;;;;;;;;;22.30;26.90;;;;;;5074303;28;20373;-46
2022/03/01 11:44:32;;;;;;;;;;;22.30;26.90;;;;;;5063750;28;19908;-49
2022/03/01 11:46:58;;;;;;;;;;;22.30;26.90;;;;;;5058078;28;19917;-46
2022/03/01 11:49:31;;;;;;;;;;;22.30;26.90;;;;;;5071919;28;19912;-47
2022/03/01 11:51:58;;;;;;;;;;;22.30;26.90;;;;;;5068419;28;19908;-52
2022/03/01 11:54:27;;;;;;;;;;;22.30;26.90;;;;;;5067607;28;19912;-53
2022/03/01 11:56:58;;;;;;;;;;;22.30;26.80;;;;;;5071661;28;19970;-44
2022/03/01 11:59:25;;;;;;;;;;;22.30;26.80;;;;;;5074941;28;19916;-46
2022/03/01 12:01:52;;;;;;;;;;;22.40;26.90;;;;;;5075638;28;19908;-50
2022/03/01 12:04:22;;;;;;;;;;;22.40;26.90;;;;;;5077087;28;19908;-52
2022/03/01 12:06:54;;;;;;;;;;;22.40;26.90;;;;;;5073849;28;19908;-56
2022/03/01 12:09:21;;;;;;;;;;;22.40;26.90;;;;;;5073947;28;19999;-47
2022/03/01 12:11:47;;;;;;;;;;;22.50;26.90;;;;;;5075497;28;20214;-52
2022/03/01 12:14:19;;;;;;;;;;;22.50;26.90;;;;;;5074884;28;19919;-48
2022/03/01 12:16:46;;;;;;;;;;;22.50;26.80;;;;;;5059895;28;19920;-47
2022/03/01 12:19:20;;;;;;;;;;;22.60;26.80;;;;;;5066907;28;19927;-54
2022/03/01 12:21:50;;;;;;;;;;;22.60;26.80;;;;;;5073025;28;20387;-46
2022/03/01 12:24:16;;;;;;;;;;;22.60;26.90;;;;;;5074538;28;19950;-54
2022/03/01 12:26:46;;;;;;;;;;;22.60;26.90;;;;;;5063162;28;19920;-50
2022/03/01 12:29:13;;;;;;;;;;;22.70;26.90;;;;;;5060188;28;20346;-47
2022/03/01 12:31:39;;;;;;;;;;;22.70;26.90;;;;;;5072002;28;19999;-47
2022/03/01 12:34:06;;;;;;;;;;;22.70;26.90;;;;;;5075156;28;20020;-49
2022/03/01 12:36:33;;;;;;;;;;;22.80;26.90;;;;;;5075225;28;19991;-46
2022/03/01 12:39:04;;;;;;;;;;;22.80;26.90;;;;;;5074052;28;19916;-44
2022/03/01 12:41:29;;;;;;;;;;;22.80;26.90;;;;;;5075196;28;19999;-48
2022/03/01 12:43:56;;;;;;;;;;;22.80;26.90;;;;;;5069423;28;19999;-46
2022/03/01 12:46:23;;;;;;;;;;;22.90;27.00;;;;;;5062877;28;19919;-45
2022/03/01 12:48:48;;;;;;;;;;;22.90;27.00;;;;;;5075919;28;19909;-44
2022/03/01 12:51:14;;;;;;;;;;;22.90;26.90;;;;;;5071239;28;19975;-49
2022/03/01 12:53:54;;;;;;;;;;;22.90;26.90;;;;;;5069365;28;20362;-45
2022/03/01 12:56:24;;;;;;;;;;;22.90;27.00;;;;;;5070593;28;19979;-51
2022/03/01 12:58:51;;;;;;;;;;;22.90;27.00;;;;;;5065261;28;20370;-49
2022/03/01 13:01:19;;;;;;;;;;;22.90;27.00;;;;;;5070229;28;20127;-44
2022/03/01 13:03:47;;;;;;;;;;;22.90;27.10;;;;;;5055774;28;19908;-48
2022/03/01 13:06:15;;;;;;;;;;;22.90;27.00;;;;;;5063270;28;19912;-44
2022/03/01 13:08:42;;;;;;;;;;;22.90;27.10;;;;;;5075566;28;19908;-46
2022/03/01 13:11:09;;;;;;;;;;;22.90;27.10;;;;;;5072624;28;19905;-45
2022/03/01 13:13:38;;;;;;;;;;;22.90;27.10;;;;;;5075440;28;19914;-46
2022/03/01 13:16:04;;;;;;;;;;;22.90;27.10;;;;;;5074203;28;19919;-47
2022/03/01 13:18:30;;;;;;;;;;;22.90;27.10;;;;;;5075186;28;19999;-46
2022/03/01 13:20:56;;;;;;;;;;;22.90;27.10;;;;;;5073830;28;19927;-48
2022/03/01 13:23:31;;;;;;;;;;;22.90;27.10;;;;;;5073442;28;20310;-49
2022/03/01 13:25:57;;;;;;;;;;;22.90;27.10;;;;;;5075128;28;19973;-52
2022/03/01 13:28:34;;;;;;;;;;;22.90;27.20;;;;;;5074604;28;20331;-47
2022/03/01 13:31:00;;;;;;;;;;;22.90;27.30;;;;;;5075069;28;19908;-51
2022/03/01 13:33:28;;;;;;;;;;;22.90;27.40;;;;;;5060454;28;20007;-49
2022/03/01 13:35:55;;;;;;;;;;;22.90;27.40;;;;;;5072496;28;19912;-55
2022/03/01 13:38:21;;;;;;;;;;;22.90;27.40;;;;;;5074098;28;19908;-53
2022/03/01 13:40:47;;;;;;;;;;;23.00;27.50;;;;;;5072567;28;20251;-45
2022/03/01 13:43:14;;;;;;;;;;;23.00;27.50;;;;;;5075265;28;19908;-50
2022/03/01 13:45:41;;;;;;;;;;;23.00;27.70;;;;;;5072410;28;19932;-51
2022/03/01 13:48:12;;;;;;;;;;;23.00;27.60;;;;;;5071594;28;20234;-48
2022/03/01 13:50:38;;;;;;;;;;;23.10;27.80;;;;;;5073147;28;19938;-50
2022/03/01 13:53:08;;;;;;;;;;;23.10;28.00;;;;;;5069779;28;19962;-53
2022/03/01 13:55:35;;;;;;;;;;;23.10;28.10;;;;;;5073713;28;19941;-50
2022/03/01 13:58:03;;;;;;;;;;;23.10;28.00;;;;;;5072207;28;19973;-53
2022/03/01 14:00:33;;;;;;;;;;;23.20;28.00;;;;;;5073500;28;19929;-55
2022/03/01 14:03:08;;;;;;;;;;;23.20;27.90;;;;;;5077856;28;19919;-50
2022/03/01 14:05:34;;;;;;;;;;;23.20;27.90;;;;;;5071966;28;19919;-51
2022/03/01 14:08:04;;;;;;;;;;;23.20;27.80;;;;;;5071115;28;20239;-51
2022/03/01 14:10:31;;;;;;;;;;;23.20;27.80;;;;;;5070643;28;19913;-50
2022/03/01 14:13:05;;;;;;;;;;;23.20;27.90;;;;;;5072217;28;19919;-54
2022/03/01 14:15:32;;;;;;;;;;;23.20;28.00;;;;;;5073124;28;19920;-49